Time;durP1;ratioP1;P1;durP2;ratioP2;P2;SDS_P1;SDS_P2;PMS_P1;PMS_P2;Temp;Humidity;BMP_temperature;BMP_pressure;BME280_temperature;BME280_humidity;BME280_pressure;Samples;Min_cycle;Max_cycle;Signal;HPM_P1;HPM_P2
2023/12/02 00:01:18;;;;;;;68.30;30.88;;;0.20;84.20;;;;;;4848358;29;20126;-92
2023/12/02 00:03:45;;;;;;;67.90;28.98;;;0.20;84.20;;;;;;4848684;29;20539;-92
2023/12/02 00:06:12;;;;;;;79.32;33.35;;;0.10;84.50;;;;;;4848355;29;20515;-93
2023/12/02 00:08:40;;;;;;;77.35;32.85;;;0.10;84.50;;;;;;4848447;29;20087;-92
2023/12/02 00:11:07;;;;;;;80.53;33.27;;;0.20;84.50;;;;;;4848423;29;20049;-92
2023/12/02 00:13:34;;;;;;;78.18;32.92;;;0.20;84.50;;;;;;4834739;29;20042;-92
2023/12/02 00:16:01;;;;;;;74.20;32.90;;;0.20;84.10;;;;;;4832933;29;20045;-92
2023/12/02 00:18:28;;;;;;;79.43;34.00;;;0.20;84.10;;;;;;4832704;29;20572;-92
2023/12/02 00:20:55;;;;;;;92.07;36.08;;;0.10;84.30;;;;;;4837096;29;20404;-92
2023/12/02 00:23:23;;;;;;;77.20;31.67;;;0.10;84.40;;;;;;4833402;29;20050;-92
2023/12/02 00:25:50;;;;;;;68.95;30.00;;;0.00;84.40;;;;;;4843423;29;20042;-93
2023/12/02 00:28:17;;;;;;;70.50;28.17;;;0.00;84.30;;;;;;4847961;29;20045;-92
2023/12/02 00:30:44;;;;;;;75.15;33.97;;;0.00;84.30;;;;;;4846897;29;20045;-93
2023/12/02 00:33:12;;;;;;;77.43;32.78;;;0.00;84.50;;;;;;4847850;29;20152;-94
2023/12/02 00:35:40;;;;;;;79.53;32.47;;;0.10;84.30;;;;;;4847889;29;20524;-91
2023/12/02 00:38:07;;;;;;;82.45;34.75;;;0.10;84.10;;;;;;4847142;29;20089;-91
2023/12/02 00:40:34;;;;;;;78.63;32.90;;;0.00;84.20;;;;;;4847368;29;20059;-91
2023/12/02 00:43:01;;;;;;;53.20;23.95;;;0.10;84.30;;;;;;4847247;29;20056;-91
2023/12/02 00:45:28;;;;;;;64.93;28.95;;;0.10;83.90;;;;;;4847516;29;20077;-91
2023/12/02 00:47:57;;;;;;;69.23;29.90;;;0.10;83.90;;;;;;4847658;29;20497;-91
2023/12/02 00:50:24;;;;;;;56.55;25.20;;;0.10;83.80;;;;;;4847139;29;20105;-91
2023/12/02 00:52:51;;;;;;;65.15;28.90;;;0.10;83.60;;;;;;4847208;29;20054;-91
2023/12/02 00:55:18;;;;;;;59.60;28.10;;;0.00;83.70;;;;;;4846997;29;20068;-92
2023/12/02 00:57:45;;;;;;;51.80;21.83;;;0.00;83.70;;;;;;4847182;29;20493;-91
2023/12/02 01:00:13;;;;;;;65.13;27.83;;;0.00;83.70;;;;;;4847386;29;20122;-92
2023/12/02 01:02:40;;;;;;;61.13;28.70;;;0.00;83.70;;;;;;4846773;29;20046;-91
2023/12/02 01:05:07;;;;;;;67.63;28.90;;;0.00;83.90;;;;;;4846951;29;20102;-91
2023/12/02 01:07:34;;;;;;;60.30;26.73;;;0.00;83.80;;;;;;4846833;29;20049;-92
2023/12/02 01:10:03;;;;;;;65.13;29.42;;;0.00;83.60;;;;;;4846784;29;20041;-91
2023/12/02 01:12:30;;;;;;;68.23;29.40;;;0.00;83.70;;;;;;4847052;29;20084;-92
2023/12/02 01:14:58;;;;;;;59.83;27.55;;;0.00;83.80;;;;;;4846766;29;20442;-91
2023/12/02 01:17:25;;;;;;;61.92;27.90;;;0.00;83.90;;;;;;4846688;29;20055;-91
2023/12/02 01:19:52;;;;;;;62.17;27.27;;;0.00;83.80;;;;;;4846809;29;20058;-92
2023/12/02 01:22:19;;;;;;;55.90;24.55;;;0.00;84.10;;;;;;4828023;29;20069;-91
2023/12/02 01:24:46;;;;;;;57.30;25.60;;;0.00;83.80;;;;;;4813218;29;20074;-91
2023/12/02 01:27:15;;;;;;;53.97;24.50;;;0.00;83.80;;;;;;4813150;29;20045;-91
2023/12/02 01:29:42;;;;;;;59.25;27.08;;;0.00;83.90;;;;;;4813199;29;20050;-92
2023/12/02 01:32:11;;;;;;;54.63;22.77;;;0.00;84.00;;;;;;4813426;29;20087;-91
2023/12/02 01:34:38;;;;;;;64.80;27.63;;;0.00;84.00;;;;;;4813128;29;20050;-92
2023/12/02 01:37:05;;;;;;;60.63;26.73;;;0.00;83.90;;;;;;4812928;29;20146;-93
2023/12/02 01:39:32;;;;;;;57.58;24.25;;;0.00;83.90;;;;;;4812986;29;20065;-92
2023/12/02 01:41:59;;;;;;;53.70;23.02;;;0.00;83.60;;;;;;4812215;29;20115;-92
2023/12/02 01:44:26;;;;;;;53.85;24.83;;;0.00;83.30;;;;;;4812883;29;20054;-92
2023/12/02 01:46:53;;;;;;;56.05;25.75;;;0.00;83.50;;;;;;4812918;29;20145;-92
2023/12/02 01:49:22;;;;;;;48.37;23.07;;;0.00;83.60;;;;;;4813094;29;20053;-92
2023/12/02 01:51:49;;;;;;;48.53;22.55;;;0.00;83.20;;;;;;4812639;29;20498;-92
2023/12/02 01:54:17;;;;;;;49.88;23.13;;;0.00;83.30;;;;;;4812727;29;20054;-92
2023/12/02 01:56:46;;;;;;;55.65;25.27;;;0.00;83.10;;;;;;4812781;29;20050;-92
2023/12/02 01:59:27;;;;;;;54.58;24.35;;;0.00;83.10;;;;;;4841259;29;20049;-93
2023/12/02 02:01:55;;;;;;;51.40;24.53;;;0.00;83.00;;;;;;4840815;29;20521;-92
2023/12/02 02:04:22;;;;;;;52.95;24.95;;;0.00;82.90;;;;;;4830842;29;20052;-93
2023/12/02 02:06:50;;;;;;;51.80;22.52;;;0.00;83.20;;;;;;4830735;29;20053;-92
2023/12/02 02:09:16;;;;;;;54.92;25.52;;;0.00;83.10;;;;;;4837099;29;20082;-90
2023/12/02 02:11:48;;;;;;;56.28;24.17;;;0.00;83.20;;;;;;4845797;29;20508;-90
2023/12/02 02:14:15;;;;;;;56.93;25.33;;;-0.10;83.10;;;;;;4841899;29;20056;-89
2023/12/02 02:16:42;;;;;;;54.28;24.80;;;-0.20;83.40;;;;;;4840412;29;20586;-90
2023/12/02 02:19:11;;;;;;;63.67;27.08;;;-0.10;83.50;;;;;;4827967;29;20116;-89
2023/12/02 02:21:38;;;;;;;54.22;24.88;;;-0.10;83.50;;;;;;4845547;29;20064;-90
2023/12/02 02:24:05;;;;;;;50.83;22.40;;;0.00;83.50;;;;;;4840283;29;20056;-89
2023/12/02 02:26:32;;;;;;;53.30;24.97;;;0.00;83.10;;;;;;4830509;29;20050;-90
2023/12/02 02:28:59;;;;;;;61.05;26.17;;;-0.10;83.20;;;;;;4831915;29;20069;-90
2023/12/02 02:31:26;;;;;;;52.72;24.17;;;-0.10;83.50;;;;;;4830553;29;20045;-90
2023/12/02 02:33:53;;;;;;;58.72;25.73;;;-0.10;83.50;;;;;;4830309;29;20083;-90
2023/12/02 02:36:20;;;;;;;54.85;23.50;;;-0.10;83.60;;;;;;4830273;29;20053;-90
2023/12/02 02:38:48;;;;;;;60.50;26.60;;;0.00;83.40;;;;;;4832700;29;20063;-90
2023/12/02 02:41:15;;;;;;;58.50;26.67;;;-0.10;83.40;;;;;;4845592;29;20053;-91
2023/12/02 02:43:42;;;;;;;49.38;21.13;;;0.00;83.40;;;;;;4845556;29;20042;-91
2023/12/02 02:46:09;;;;;;;62.90;27.02;;;0.00;83.30;;;;;;4839306;29;20046;-91
2023/12/02 02:48:36;;;;;;;59.45;25.90;;;0.00;83.30;;;;;;4812141;29;20076;-92
2023/12/02 02:51:03;;;;;;;61.83;28.57;;;0.00;83.20;;;;;;4817832;29;20038;-90
2023/12/02 02:53:30;;;;;;;52.40;22.75;;;0.00;83.10;;;;;;4845162;29;20053;-91
2023/12/02 02:55:57;;;;;;;58.17;27.75;;;-0.10;83.20;;;;;;4835088;29;20041;-91
2023/12/02 02:58:29;;;;;;;56.15;24.27;;;-0.10;83.40;;;;;;4841493;29;20106;-91
2023/12/02 03:00:56;;;;;;;65.70;29.08;;;-0.10;83.30;;;;;;4840701;29;20050;-91
2023/12/02 03:03:23;;;;;;;54.77;24.47;;;-0.10;83.60;;;;;;4837186;29;20046;-91
2023/12/02 03:05:50;;;;;;;57.13;24.52;;;-0.10;83.50;;;;;;4840005;29;20060;-91
2023/12/02 03:08:17;;;;;;;63.97;28.08;;;-0.10;83.30;;;;;;4837588;29;20042;-92
2023/12/02 03:10:48;;;;;;;56.28;24.42;;;0.00;83.30;;;;;;4840107;29;20056;-92
2023/12/02 03:13:15;;;;;;;59.42;25.13;;;-0.10;83.30;;;;;;4839332;29;20547;-92
2023/12/02 03:15:42;;;;;;;55.00;26.07;;;-0.10;83.30;;;;;;4843694;29;20057;-92
2023/12/02 03:18:09;;;;;;;46.30;20.63;;;-0.20;83.40;;;;;;4839754;29;20045;-92
2023/12/02 03:20:36;;;;;;;54.95;25.10;;;-0.20;83.50;;;;;;4838510;29;20052;-92
2023/12/02 03:23:03;;;;;;;49.75;22.95;;;-0.20;83.70;;;;;;4830142;29;20126;-92
2023/12/02 03:25:31;;;;;;;60.55;26.52;;;-0.30;83.90;;;;;;4846459;29;20081;-92
2023/12/02 03:27:58;;;;;;;45.40;19.40;;;-0.30;84.10;;;;;;4839680;29;20140;-92
2023/12/02 03:30:25;;;;;;;56.28;24.60;;;-0.30;84.10;;;;;;4839137;29;20042;-91
2023/12/02 03:32:52;;;;;;;55.05;23.98;;;-0.40;84.20;;;;;;4842205;29;20045;-91
2023/12/02 03:35:19;;;;;;;57.15;25.50;;;-0.40;84.20;;;;;;4842762;29;20543;-91
2023/12/02 03:37:46;;;;;;;50.75;21.40;;;-0.50;84.30;;;;;;4837952;29;20149;-91
2023/12/02 03:40:13;;;;;;;52.37;22.77;;;-0.40;84.50;;;;;;4840933;29;20049;-90
2023/12/02 03:42:40;;;;;;;51.00;23.60;;;-0.40;84.30;;;;;;4839058;29;20070;-91
2023/12/02 03:45:08;;;;;;;58.33;25.38;;;-0.40;84.30;;;;;;4841039;29;20042;-90
2023/12/02 03:47:35;;;;;;;50.55;22.83;;;-0.50;84.40;;;;;;4833928;29;20037;-91
2023/12/02 03:50:03;;;;;;;53.55;24.80;;;-0.50;84.30;;;;;;4848677;29;20140;-90
2023/12/02 03:52:30;;;;;;;53.40;23.33;;;-0.50;84.30;;;;;;4843651;29;20060;-90
2023/12/02 03:54:57;;;;;;;51.15;21.90;;;-0.50;84.40;;;;;;4837993;29;20052;-90
2023/12/02 03:57:24;;;;;;;48.60;20.90;;;-0.40;84.40;;;;;;4833111;29;20049;-91
2023/12/02 03:59:51;;;;;;;45.10;20.33;;;-0.50;84.40;;;;;;4832947;29;20057;-90
2023/12/02 04:02:18;;;;;;;49.42;22.08;;;-0.50;84.50;;;;;;4834798;29;20054;-90
2023/12/02 04:04:45;;;;;;;51.70;24.20;;;-0.50;84.40;;;;;;4813780;29;20053;-91
2023/12/02 04:07:13;;;;;;;50.47;22.23;;;-0.50;84.50;;;;;;4829484;29;20054;-90
2023/12/02 04:09:40;;;;;;;58.10;21.50;;;-0.50;84.40;;;;;;4817798;29;20075;-91
2023/12/02 04:12:07;;;;;;;49.22;21.55;;;-0.50;84.20;;;;;;4840883;29;20056;-92
2023/12/02 04:14:37;;;;;;;42.47;18.50;;;-0.50;84.20;;;;;;4832858;29;20068;-92
2023/12/02 04:17:05;;;;;;;35.60;17.37;;;-0.50;84.20;;;;;;4832793;29;20054;-92
2023/12/02 04:19:32;;;;;;;40.85;20.42;;;-0.50;84.20;;;;;;4814912;29;20132;-92
2023/12/02 04:21:59;;;;;;;43.03;19.67;;;-0.60;84.40;;;;;;4829657;29;20509;-92
2023/12/02 04:24:26;;;;;;;41.63;17.13;;;-0.50;84.20;;;;;;4814566;29;20493;-92
2023/12/02 04:26:55;;;;;;;46.65;19.95;;;-0.60;84.20;;;;;;4814666;29;20079;-92
2023/12/02 04:29:22;;;;;;;34.77;16.50;;;-0.60;84.40;;;;;;4814413;29;20085;-92
2023/12/02 04:31:50;;;;;;;43.40;19.13;;;-0.60;84.40;;;;;;4814571;29;20049;-92
2023/12/02 04:34:17;;;;;;;44.53;19.45;;;-0.60;84.40;;;;;;4829394;29;20417;-92
2023/12/02 04:36:44;;;;;;;43.13;17.30;;;-0.60;84.30;;;;;;4814189;29;20149;-92
2023/12/02 04:39:11;;;;;;;44.03;18.92;;;-0.60;84.40;;;;;;4829318;29;20058;-92
2023/12/02 04:41:38;;;;;;;46.77;21.30;;;-0.60;84.40;;;;;;4829214;29;20114;-91
2023/12/02 04:44:06;;;;;;;35.80;17.55;;;-0.60;84.30;;;;;;4814107;29;20054;-91
2023/12/02 04:46:33;;;;;;;39.83;18.23;;;-0.50;84.10;;;;;;4829358;29;20061;-92
2023/12/02 04:49:00;;;;;;;41.03;18.42;;;-0.60;84.00;;;;;;4814220;29;20054;-91
2023/12/02 04:51:27;;;;;;;36.45;15.52;;;-0.60;84.00;;;;;;4840798;29;20049;-91
2023/12/02 04:53:54;;;;;;;45.40;17.37;;;-0.50;84.20;;;;;;4835274;29;20053;-90
2023/12/02 04:56:22;;;;;;;39.97;18.10;;;-0.50;84.00;;;;;;4842706;29;20046;-91
2023/12/02 04:58:49;;;;;;;41.25;14.48;;;-0.50;84.00;;;;;;4839291;29;20053;-91
2023/12/02 05:01:16;;;;;;;37.45;17.98;;;-0.50;83.80;;;;;;4840637;29;20063;-91
2023/12/02 05:03:43;;;;;;;38.30;16.83;;;-0.60;84.00;;;;;;4836400;29;20053;-91
2023/12/02 05:06:14;;;;;;;44.47;18.10;;;-0.60;84.00;;;;;;4837132;29;20057;-91
2023/12/02 05:08:43;;;;;;;42.85;20.00;;;-0.50;84.00;;;;;;4860002;29;20046;-91
2023/12/02 05:11:18;;;;;;;41.72;17.83;;;-0.60;83.90;;;;;;4840409;29;20049;-91
2023/12/02 05:13:46;;;;;;;36.95;16.30;;;-0.50;83.80;;;;;;4834144;29;20061;-91
2023/12/02 05:16:14;;;;;;;36.63;15.65;;;-0.50;83.50;;;;;;4836801;29;20049;-91
2023/12/02 05:18:41;;;;;;;37.20;17.13;;;-0.50;83.50;;;;;;4839716;29;20051;-90
2023/12/02 05:21:09;;;;;;;38.30;17.33;;;-0.60;83.70;;;;;;4836872;29;20049;-91
2023/12/02 05:23:36;;;;;;;34.55;16.42;;;-0.60;83.70;;;;;;4836523;29;20136;-91
2023/12/02 05:26:03;;;;;;;31.23;15.23;;;-0.50;83.70;;;;;;4836925;29;20046;-91
2023/12/02 05:28:30;;;;;;;44.42;18.33;;;-0.50;83.50;;;;;;4837351;29;20046;-90
2023/12/02 05:30:57;;;;;;;37.63;17.90;;;-0.50;83.40;;;;;;4834777;29;20050;-90
2023/12/02 05:33:24;;;;;;;45.25;18.85;;;-0.50;83.30;;;;;;4840269;29;20449;-90
2023/12/02 05:35:51;;;;;;;42.50;20.50;;;-0.50;83.40;;;;;;4850871;29;20067;-91
2023/12/02 05:38:18;;;;;;;42.65;20.00;;;-0.60;83.40;;;;;;4837064;29;20065;-91
2023/12/02 05:40:45;;;;;;;37.13;15.80;;;-0.60;83.40;;;;;;4843429;29;20057;-91
2023/12/02 05:43:13;;;;;;;31.73;15.63;;;-0.70;83.50;;;;;;4836765;29;20045;-91
2023/12/02 05:45:40;;;;;;;35.67;15.63;;;-0.70;83.70;;;;;;4842476;29;20412;-90
2023/12/02 05:48:07;;;;;;;31.48;14.00;;;-0.80;83.80;;;;;;4839695;29;20057;-90
2023/12/02 05:50:34;;;;;;;37.28;17.50;;;-0.80;84.00;;;;;;4834729;29;20523;-90
2023/12/02 05:53:04;;;;;;;43.50;19.75;;;-0.70;84.10;;;;;;4846132;29;20052;-90
2023/12/02 05:55:31;;;;;;;40.43;17.77;;;-0.70;84.00;;;;;;4845611;29;20153;-90
2023/12/02 05:57:58;;;;;;;44.10;20.05;;;-0.70;83.80;;;;;;4843450;29;20053;-88
2023/12/02 06:00:26;;;;;;;46.42;21.20;;;-0.70;83.90;;;;;;4838464;29;20064;-90
2023/12/02 06:02:56;;;;;;;33.10;14.52;;;-0.70;84.00;;;;;;4830708;29;20067;-90
2023/12/02 06:05:23;;;;;;;40.53;17.13;;;-0.60;83.70;;;;;;4836955;29;20053;-90
2023/12/02 06:07:50;;;;;;;39.40;16.63;;;-0.60;83.80;;;;;;4831060;29;20052;-89
2023/12/02 06:10:18;;;;;;;33.47;15.38;;;-0.60;83.60;;;;;;4831152;29;20098;-89
2023/12/02 06:12:45;;;;;;;34.15;14.82;;;-0.60;83.70;;;;;;4846061;29;20531;-90
2023/12/02 06:15:12;;;;;;;35.25;16.25;;;-0.60;83.60;;;;;;4840977;29;20080;-90
2023/12/02 06:17:39;;;;;;;31.33;14.52;;;-0.60;83.70;;;;;;4830911;29;20049;-89
2023/12/02 06:20:09;;;;;;;37.07;16.67;;;-0.60;83.60;;;;;;4833066;29;20046;-89
2023/12/02 06:22:36;;;;;;;36.20;15.98;;;-0.70;83.80;;;;;;4832004;29;20045;-91
2023/12/02 06:25:07;;;;;;;33.40;15.52;;;-0.70;83.80;;;;;;4855212;29;20049;-91
2023/12/02 06:27:34;;;;;;;38.67;16.90;;;-0.60;83.60;;;;;;4837653;29;20046;-90
2023/12/02 06:30:01;;;;;;;36.53;15.93;;;-0.80;83.50;;;;;;4838250;29;20045;-90
2023/12/02 06:32:30;;;;;;;26.40;12.73;;;-0.80;83.80;;;;;;4845877;29;20141;-90
2023/12/02 06:34:57;;;;;;;31.50;15.48;;;-0.90;84.00;;;;;;4838698;29;20041;-90
2023/12/02 06:37:24;;;;;;;34.45;14.52;;;-0.90;84.10;;;;;;4836186;29;20100;-90
2023/12/02 06:39:51;;;;;;;47.10;19.45;;;-0.90;84.20;;;;;;4832421;29;20114;-90
2023/12/02 06:42:18;;;;;;;33.90;14.40;;;-0.90;84.10;;;;;;4827775;29;20092;-90
2023/12/02 06:44:45;;;;;;;34.30;14.37;;;-0.90;84.10;;;;;;4842737;29;20123;-90
2023/12/02 06:47:13;;;;;;;27.20;12.82;;;-0.90;84.10;;;;;;4839768;29;20151;-90
2023/12/02 06:49:40;;;;;;;25.08;13.68;;;-0.90;83.80;;;;;;4838723;29;20041;-90
2023/12/02 06:52:08;;;;;;;31.02;14.32;;;-1.00;84.10;;;;;;4839829;29;20054;-90
2023/12/02 06:54:36;;;;;;;26.98;13.45;;;-1.00;84.00;;;;;;4838488;29;20411;-90
2023/12/02 06:57:05;;;;;;;27.10;11.83;;;-1.00;84.40;;;;;;4839904;29;20049;-90
2023/12/02 06:59:32;;;;;;;34.25;14.65;;;-1.00;84.50;;;;;;4831713;29;20404;-90
2023/12/02 07:01:59;;;;;;;31.48;13.90;;;-0.90;84.40;;;;;;4822272;29;20046;-90
2023/12/02 07:04:27;;;;;;;32.60;14.88;;;-0.80;84.30;;;;;;4836267;29;20407;-89
2023/12/02 07:06:54;;;;;;;32.92;14.02;;;-0.90;84.00;;;;;;4837177;29;20042;-88
2023/12/02 07:09:21;;;;;;;30.97;13.03;;;-0.90;83.90;;;;;;4839389;29;20049;-88
2023/12/02 07:11:48;;;;;;;30.48;12.90;;;-0.90;84.00;;;;;;4837550;29;20052;-88
2023/12/02 07:14:15;;;;;;;24.52;10.73;;;-0.90;84.00;;;;;;4837706;29;20053;-88
2023/12/02 07:16:43;;;;;;;24.23;11.35;;;-0.90;84.40;;;;;;4853257;29;20064;-89
2023/12/02 07:19:10;;;;;;;26.13;10.82;;;-1.00;84.70;;;;;;4836060;29;20097;-88
2023/12/02 07:21:37;;;;;;;24.27;11.00;;;-1.00;84.90;;;;;;4837315;29;20132;-87
2023/12/02 07:24:04;;;;;;;29.67;12.95;;;-1.00;85.00;;;;;;4839110;29;20136;-87
2023/12/02 07:26:31;;;;;;;26.33;12.15;;;-1.00;85.10;;;;;;4835680;29;20133;-88
2023/12/02 07:28:58;;;;;;;29.15;12.45;;;-1.00;84.80;;;;;;4832608;29;20511;-88
2023/12/02 07:31:25;;;;;;;25.50;11.38;;;-0.90;84.90;;;;;;4837757;29;20097;-91
2023/12/02 07:33:52;;;;;;;29.73;12.90;;;-1.00;84.80;;;;;;4836816;29;20097;-90
2023/12/02 07:36:22;;;;;;;24.67;12.63;;;-1.00;84.80;;;;;;4840592;29;20058;-93
2023/12/02 07:38:49;;;;;;;31.67;13.63;;;-1.00;84.80;;;;;;4838339;29;20057;-92
2023/12/02 07:41:16;;;;;;;29.55;12.98;;;-1.00;85.20;;;;;;4835794;29;20057;-95
2023/12/02 07:43:46;;;;;;;24.08;10.60;;;-1.00;85.20;;;;;;4833127;29;20050;-95
2023/12/02 07:46:13;;;;;;;26.90;12.10;;;-1.00;85.10;;;;;;4839841;29;20049;-93
2023/12/02 07:48:40;;;;;;;25.38;11.45;;;-1.00;85.10;;;;;;4830144;29;20073;-90
2023/12/02 07:51:09;;;;;;;24.10;11.30;;;-1.00;85.10;;;;;;4830667;29;20049;-95
2023/12/02 07:53:38;;;;;;;28.40;13.30;;;-1.00;84.80;;;;;;4837034;29;20053;-96
2023/12/02 07:56:08;;;;;;;25.38;11.40;;;-0.90;84.90;;;;;;4854979;29;20061;-96
2023/12/02 07:58:35;;;;;;;27.13;11.53;;;-0.80;84.20;;;;;;4850621;29;20049;-93
2023/12/02 08:01:02;;;;;;;23.73;10.07;;;-0.90;84.30;;;;;;4834033;29;20049;-94
2023/12/02 08:03:30;;;;;;;29.00;11.15;;;-0.80;84.10;;;;;;4831541;29;20058;-93
2023/12/02 08:05:58;;;;;;;25.00;11.48;;;-0.80;83.80;;;;;;4829842;29;20516;-93
2023/12/02 08:08:25;;;;;;;22.75;9.45;;;-0.90;84.00;;;;;;4829962;29;20110;-93
2023/12/02 08:10:54;;;;;;;25.10;10.70;;;-0.80;83.90;;;;;;4823962;29;20050;-92
2023/12/02 08:13:23;;;;;;;26.70;11.38;;;-0.70;83.80;;;;;;4834309;29;20089;-95
2023/12/02 08:15:50;;;;;;;24.00;9.40;;;-0.80;83.50;;;;;;4849966;29;20065;-94
2023/12/02 08:18:18;;;;;;;19.08;8.38;;;-0.80;83.40;;;;;;4851504;29;20079;-96
2023/12/02 08:20:48;;;;;;;20.23;9.23;;;-0.80;83.50;;;;;;4844030;29;20057;-94
2023/12/02 08:23:15;;;;;;;21.80;9.63;;;-0.70;83.80;;;;;;4848261;29;20082;-95
2023/12/02 08:25:42;;;;;;;18.83;7.53;;;-0.60;83.20;;;;;;4847965;29;20050;-95
2023/12/02 08:28:10;;;;;;;18.23;7.25;;;-0.70;82.80;;;;;;4842648;29;20042;-93
2023/12/02 08:30:37;;;;;;;19.23;8.90;;;-0.70;82.80;;;;;;4847565;29;20046;-93
2023/12/02 08:33:04;;;;;;;21.75;9.02;;;-0.70;83.00;;;;;;4839114;29;20114;-95
2023/12/02 08:35:31;;;;;;;23.20;9.23;;;-0.70;82.90;;;;;;4832838;29;20524;-93
2023/12/02 08:37:58;;;;;;;20.45;8.60;;;-0.70;82.90;;;;;;4832433;29;20052;-95
2023/12/02 08:40:25;;;;;;;18.08;8.25;;;-0.70;82.80;;;;;;4832881;29;20076;-92
2023/12/02 08:42:53;;;;;;;18.33;7.15;;;-0.70;82.60;;;;;;4837386;29;20048;-92
2023/12/02 08:45:20;;;;;;;24.23;8.68;;;-0.70;82.50;;;;;;4838809;29;20519;-93
2023/12/02 08:47:47;;;;;;;17.27;7.00;;;-0.60;82.40;;;;;;4833234;29;20579;-93
2023/12/02 08:50:14;;;;;;;17.08;6.85;;;-0.60;82.30;;;;;;4832665;29;20457;-92
2023/12/02 08:52:41;;;;;;;20.17;8.85;;;-0.60;82.10;;;;;;4838118;29;20125;-90
2023/12/02 08:55:08;;;;;;;18.52;7.25;;;-0.60;82.00;;;;;;4832603;29;20091;-91
2023/12/02 08:57:39;;;;;;;17.33;7.20;;;-0.70;82.10;;;;;;4839694;29;20504;-89
2023/12/02 09:00:06;;;;;;;22.27;8.17;;;-0.70;82.20;;;;;;4850452;29;20109;-89
2023/12/02 09:02:34;;;;;;;16.45;7.13;;;-0.70;82.40;;;;;;4837286;29;20045;-90
2023/12/02 09:05:02;;;;;;;15.75;6.22;;;-0.80;82.40;;;;;;4836116;29;20405;-90
2023/12/02 09:07:30;;;;;;;15.45;6.68;;;-0.80;82.50;;;;;;4832587;29;20054;-90
2023/12/02 09:09:58;;;;;;;17.65;6.55;;;-0.80;82.80;;;;;;4833918;29;20045;-90
2023/12/02 09:12:25;;;;;;;15.50;5.83;;;-0.80;82.90;;;;;;4836295;29;20128;-92
2023/12/02 09:15:15;;;;;;;15.98;6.30;;;-0.70;82.90;;;;;;4837733;29;20041;-92
2023/12/02 09:18:07;;;;;;;16.90;6.32;;;-0.60;82.70;;;;;;4859863;29;20414;-93
2023/12/02 09:20:43;;;;;;;15.20;6.40;;;-0.50;82.50;;;;;;4846158;29;20045;-92
2023/12/02 09:23:11;;;;;;;16.48;7.13;;;-0.50;82.20;;;;;;4845978;29;20077;-93
2023/12/02 09:25:39;;;;;;;18.20;7.83;;;-0.50;82.00;;;;;;4838999;29;20068;-92
2023/12/02 09:28:07;;;;;;;18.52;7.40;;;-0.50;82.10;;;;;;4833190;29;20102;-91
2023/12/02 09:30:39;;;;;;;21.50;7.75;;;-0.40;82.20;;;;;;4834589;29;20038;-92
2023/12/02 09:33:07;;;;;;;19.98;7.93;;;-0.50;82.20;;;;;;4827661;29;20061;-91
2023/12/02 09:35:34;;;;;;;21.48;8.73;;;-0.50;82.60;;;;;;4840048;29;20046;-91
2023/12/02 09:38:02;;;;;;;25.40;9.67;;;-0.50;82.70;;;;;;4836217;29;20066;-87
2023/12/02 09:40:46;;;;;;;17.00;7.32;;;-0.50;82.80;;;;;;4836779;29;20050;-92
2023/12/02 09:43:21;;;;;;;24.67;10.70;;;-0.50;82.60;;;;;;4838241;29;20052;-89
2023/12/02 09:46:10;;;;;;;23.55;9.70;;;-0.50;82.90;;;;;;4834864;29;20058;-87
2023/12/02 09:49:17;;;;;;;28.08;12.15;;;-0.50;82.90;;;;;;4849945;29;20531;-87
2023/12/02 09:51:59;;;;;;;23.27;10.83;;;-0.40;83.20;;;;;;4831821;29;20079;-91
2023/12/02 09:54:40;;;;;;;24.65;9.85;;;-0.30;82.80;;;;;;4835146;29;20045;-91
2023/12/02 09:57:33;;;;;;;21.83;9.77;;;-0.20;82.30;;;;;;4855738;29;20060;-92
2023/12/02 10:00:12;;;;;;;22.70;9.43;;;-0.20;82.20;;;;;;4807311;29;20049;-90
2023/12/02 10:02:43;;;;;;;25.75;10.90;;;-0.20;81.90;;;;;;4838600;29;20516;-92
2023/12/02 10:05:12;;;;;;;24.30;10.53;;;-0.20;82.00;;;;;;4841064;29;20057;-94
2023/12/02 10:08:00;;;;;;;22.95;9.75;;;-0.20;81.90;;;;;;4835834;29;20397;-92
2023/12/02 10:10:39;;;;;;;29.42;11.15;;;-0.20;81.80;;;;;;4838495;29;20508;-94
2023/12/02 10:13:25;;;;;;;27.52;10.88;;;-0.10;81.60;;;;;;4844829;29;20421;-89
2023/12/02 10:15:57;;;;;;;29.50;12.25;;;-0.10;81.70;;;;;;4829412;29;20048;-90
2023/12/02 10:18:32;;;;;;;27.63;12.07;;;0.00;81.60;;;;;;4830896;29;20045;-90
2023/12/02 10:21:04;;;;;;;24.75;10.85;;;0.00;81.20;;;;;;4831524;29;20098;-91
2023/12/02 10:23:37;;;;;;;24.17;9.80;;;-0.10;81.00;;;;;;4837337;29;20042;-90
2023/12/02 10:26:15;;;;;;;27.23;10.45;;;-0.10;81.30;;;;;;4835518;29;20049;-91
2023/12/02 10:29:10;;;;;;;25.08;9.45;;;-0.30;81.50;;;;;;4836028;29;20041;-91
2023/12/02 10:31:55;;;;;;;27.47;10.37;;;-0.40;81.60;;;;;;4846537;29;20297;-93
2023/12/02 10:34:30;;;;;;;34.28;10.27;;;-0.40;81.80;;;;;;4846231;29;20049;-93
2023/12/02 10:37:05;;;;;;;25.25;11.25;;;-0.40;81.60;;;;;;4841800;29;20064;-92
2023/12/02 10:39:46;;;;;;;22.15;10.63;;;-0.50;81.80;;;;;;4831538;29;20063;-94
2023/12/02 10:42:23;;;;;;;23.27;10.40;;;-0.30;81.80;;;;;;4830626;29;20053;-94
2023/12/02 10:45:07;;;;;;;21.63;9.13;;;-0.20;81.60;;;;;;4830988;29;20055;-91
2023/12/02 10:47:35;;;;;;;22.38;9.63;;;-0.20;81.30;;;;;;4827482;29;20049;-91
2023/12/02 10:50:09;;;;;;;23.50;8.88;;;-0.20;81.60;;;;;;4834119;29;20119;-96
2023/12/02 10:53:05;;;;;;;20.90;8.60;;;-0.20;80.90;;;;;;4838050;29;20053;-94
2023/12/02 10:55:45;;;;;;;19.60;8.10;;;-0.50;81.30;;;;;;4838490;29;20057;-92
2023/12/02 10:58:13;;;;;;;22.57;8.67;;;-0.50;81.80;;;;;;4850542;29;20114;-90
2023/12/02 11:01:08;;;;;;;20.85;8.25;;;-0.50;81.80;;;;;;4837802;29;20065;-90
2023/12/02 11:03:55;;;;;;;16.58;6.97;;;-0.50;81.80;;;;;;4825595;29;20102;-93
2023/12/02 11:06:39;;;;;;;19.48;8.95;;;-0.70;81.90;;;;;;4829779;29;20528;-93
2023/12/02 11:13:42;;;;;;;26.60;10.73;;;-0.60;82.50;;;;;;4837076;29;20106;-92
2023/12/02 11:17:28;;;;;;;;;;;;;;;;;;;;;
2023/12/02 11:20:58;;;;;;;25.08;10.00;;;-0.20;81.30;;;;;;4847201;29;20053;-93
2023/12/02 11:33:19;;;;;;;18.30;7.93;;;-0.60;81.40;;;;;;4848560;29;20296;-92
2023/12/02 11:36:53;;;;;;;23.65;9.60;;;-0.70;81.50;;;;;;4809054;29;20062;-93
2023/12/02 11:40:49;;;;;;;22.60;8.63;;;-0.70;81.80;;;;;;4745544;30;20064;-92
2023/12/02 11:51:07;;;;;;;22.67;9.90;;;-0.70;81.40;;;;;;4767383;29;20051;-91
2023/12/02 11:59:08;;;;;;;21.20;8.27;;;-0.70;81.60;;;;;;4791046;30;20034;-96
2023/12/02 12:12:09;;;;;;;24.87;10.50;;;-0.80;82.00;;;;;;4810186;29;20092;-93
2023/12/02 12:15:12;;;;;;;27.30;10.75;;;-0.60;81.60;;;;;;4814774;29;20062;-93
2023/12/02 12:54:37;;;;;;;35.47;15.50;;;-0.50;81.10;;;;;;4765233;30;20109;-96
2023/12/02 12:58:00;;;;;;;48.85;16.58;;;-0.30;81.00;;;;;;4745342;30;20093;-94
2023/12/02 13:18:10;;;;;;;34.30;14.05;;;-0.50;80.10;;;;;;4688130;30;20056;-94
2023/12/02 13:26:25;;;;;;;35.42;13.48;;;-0.50;81.20;;;;;;4796868;30;20058;-92
2023/12/02 13:29:05;;;;;;;39.72;16.13;;;-0.50;80.50;;;;;;4774631;30;20050;-91
2023/12/02 13:32:04;;;;;;;39.77;16.20;;;-0.50;80.50;;;;;;4773214;30;20054;-92
2023/12/02 13:35:14;;;;;;;41.10;17.17;;;-0.60;80.80;;;;;;4795871;29;20145;-92
2023/12/02 13:42:29;;;;;;;39.92;16.95;;;-0.60;81.20;;;;;;4854154;29;20236;-91
2023/12/02 13:49:26;;;;;;;37.37;16.77;;;-0.50;80.80;;;;;;4845615;29;20046;-90
2023/12/02 13:57:01;;;;;;;39.78;16.27;;;-0.50;80.90;;;;;;4863690;29;20089;-90
2023/12/02 14:09:47;;;;;;;39.53;16.77;;;-0.90;81.70;;;;;;4648469;30;20144;-89
2023/12/02 14:12:44;;;;;;;43.15;17.52;;;-0.80;81.70;;;;;;4738612;30;20052;-89
2023/12/02 14:15:23;;;;;;;50.83;19.67;;;-0.90;82.00;;;;;;4832191;29;20050;-90
2023/12/02 14:18:46;;;;;;;39.53;18.48;;;-0.90;82.30;;;;;;4829387;29;20069;-89
2023/12/02 14:21:20;;;;;;;45.67;19.73;;;-0.90;82.20;;;;;;4822501;29;20064;-89
2023/12/02 14:24:27;;;;;;;42.23;18.17;;;-1.00;82.40;;;;;;4846211;29;20461;-89
2023/12/02 14:27:39;;;;;;;36.15;16.98;;;-1.10;82.60;;;;;;4770178;29;20075;-89
2023/12/02 14:30:31;;;;;;;46.53;18.63;;;-1.10;82.80;;;;;;4820349;29;20053;-88
2023/12/02 14:33:20;;;;;;;45.63;19.45;;;-1.00;82.90;;;;;;4848521;29;20500;-87
2023/12/02 14:36:05;;;;;;;42.08;18.13;;;-1.00;82.80;;;;;;4836835;29;20416;-87
2023/12/02 14:39:06;;;;;;;46.37;20.23;;;-1.00;82.60;;;;;;4832465;29;20383;-87
2023/12/02 14:41:43;;;;;;;48.72;21.40;;;-0.90;82.70;;;;;;4823624;29;20054;-87
2023/12/02 14:48:38;;;;;;;50.00;20.88;;;-0.70;82.30;;;;;;4840047;29;20110;-90
2023/12/02 15:01:45;;;;;;;42.72;17.40;;;-0.80;82.70;;;;;;4760280;30;20066;-95
2023/12/02 15:04:17;;;;;;;45.50;17.98;;;-0.80;82.60;;;;;;4768449;29;20045;-93
2023/12/02 15:06:54;;;;;;;52.85;24.08;;;-0.80;82.30;;;;;;4831358;29;20049;-96
2023/12/02 15:09:30;;;;;;;48.72;19.33;;;-0.90;82.60;;;;;;4837462;29;20136;-95
2023/12/02 15:16:38;;;;;;;48.55;20.83;;;-0.70;82.60;;;;;;4865623;29;20048;-95
2023/12/02 15:19:57;;;;;;;51.13;21.40;;;-0.70;82.20;;;;;;4833231;29;20049;-96